Terminal Aerodrome Forecast
Issued by NWS

Home | Current Version | Previous Version | Graphics & Text | Print | Product List | Glossary On
Versions: 1 2 3 4 5 6 7 8 9 10 11 12
000
FTUS43 KGRB 240500
TAFCWA
TAF
KCWA 240520Z 2406/2506 VRB03KT P6SM BKN200
     FM241600 13008KT P6SM BKN090
     FM242200 11009KT P6SM VCSH SCT035 OVC050
      AMD LTD TO CLD VIS AND WIND TIL 241200=

USA.gov is the U.S. government's official web portal to all federal, state and local government web resources and services.